Time;durP1;ratioP1;P1;durP2;ratioP2;P2;SDS_P1;SDS_P2;PMS_P1;PMS_P2;Temp;Humidity;BMP_temperature;BMP_pressure;BME280_temperature;BME280_humidity;BME280_pressure;Samples;Min_cycle;Max_cycle;Signal;HPM_P1;HPM_P2
2022/06/28 00:02:03;;;;;;;9.90;3.97;;;;;;;20.14;58.73;94221.19;4888561;29;20028;-77
2022/06/28 00:04:29;;;;;;;7.93;3.55;;;;;;;20.11;59.41;94213.84;4888492;29;20081;-77
2022/06/28 00:06:54;;;;;;;9.82;3.45;;;;;;;20.13;58.64;94216.94;4887546;29;20045;-77
2022/06/28 00:09:20;;;;;;;6.97;3.55;;;;;;;20.13;58.50;94219.66;4888326;29;20029;-77
2022/06/28 00:11:46;;;;;;;6.50;3.72;;;;;;;20.10;58.58;94214.19;4888359;29;20021;-76
2022/06/28 00:16:57;;;;;;;9.07;4.07;;;;;;;20.02;59.17;94216.00;4888475;29;20100;-77
2022/06/28 00:19:22;;;;;;;6.88;3.22;;;;;;;19.95;59.43;94216.69;4888380;29;20100;-78
2022/06/28 00:21:49;;;;;;;4.65;3.08;;;;;;;19.88;59.09;94213.09;4888301;29;20358;-78
2022/06/28 00:24:14;;;;;;;6.18;3.60;;;;;;;19.84;59.82;94216.53;4888186;29;20036;-77
2022/06/28 00:26:41;;;;;;;5.75;3.80;;;;;;;19.84;59.84;94223.84;4888404;29;20041;-76
2022/06/28 00:29:07;;;;;;;8.18;3.80;;;;;;;19.80;59.99;94221.09;4888510;29;20096;-77
2022/06/28 00:31:32;;;;;;;9.07;4.05;;;;;;;19.78;59.83;94217.97;4888173;29;20346;-76
2022/06/28 00:33:58;;;;;;;10.25;4.75;;;;;;;19.76;60.22;94219.47;4888120;29;20032;-77
2022/06/28 00:36:23;;;;;;;4.63;3.47;;;;;;;19.71;60.91;94215.16;4888059;29;20032;-77
2022/06/28 00:38:49;;;;;;;6.82;4.00;;;;;;;19.69;61.14;94214.69;4888092;29;20028;-77
2022/06/28 00:41:14;;;;;;;9.55;4.18;;;;;;;19.62;61.02;94220.78;4888281;29;20028;-77
2022/06/28 00:43:40;;;;;;;9.48;3.97;;;;;;;19.60;62.06;94211.44;4888431;29;20025;-77
2022/06/28 00:46:07;;;;;;;6.15;3.83;;;;;;;19.54;62.05;94218.31;4888137;29;20064;-77
2022/06/28 00:48:33;;;;;;;7.43;3.88;;;;;;;19.52;62.36;94221.38;4889484;29;20053;-77
2022/06/28 00:50:58;;;;;;;5.47;3.75;;;;;;;19.50;62.54;94217.47;4890197;29;20072;-77
2022/06/28 00:53:24;;;;;;;7.40;4.45;;;;;;;19.44;62.96;94212.38;4891490;29;20036;-77
2022/06/28 00:55:49;;;;;;;10.57;4.13;;;;;;;19.40;63.32;94218.88;4891450;29;20308;-77
2022/06/28 00:58:16;;;;;;;8.75;4.80;;;;;;;19.37;63.28;94222.28;4891356;29;20200;-77
2022/06/28 01:00:45;;;;;;;9.23;5.20;;;;;;;19.34;63.15;94221.06;4891299;29;20024;-77
2022/06/28 01:03:16;;;;;;;12.45;4.15;;;;;;;19.32;63.38;94217.94;4891376;29;20069;-76
2022/06/28 01:05:42;;;;;;;9.20;4.45;;;;;;;19.29;63.07;94215.97;4891320;29;20227;-76
2022/06/28 01:08:09;;;;;;;7.80;4.60;;;;;;;19.27;63.37;94220.94;4891318;29;20215;-76
2022/06/28 01:10:35;;;;;;;6.60;4.22;;;;;;;19.18;63.88;94221.19;4891100;29;20092;-77
2022/06/28 01:13:02;;;;;;;7.55;4.80;;;;;;;19.17;64.00;94216.13;4889424;29;20029;-75
2022/06/28 01:15:28;;;;;;;12.10;4.40;;;;;;;19.15;64.07;94213.00;4890461;29;20256;-76
2022/06/28 01:17:54;;;;;;;9.77;4.80;;;;;;;19.13;64.01;94220.69;4891093;29;20025;-76
2022/06/28 01:20:20;;;;;;;9.45;4.93;;;;;;;19.08;64.35;94221.00;4890844;29;20201;-77
2022/06/28 01:22:46;;;;;;;6.22;4.55;;;;;;;19.02;64.45;94209.69;4890799;29;20129;-76
2022/06/28 01:25:11;;;;;;;7.93;4.50;;;;;;;18.99;64.45;94208.50;4891082;29;20100;-76
2022/06/28 01:27:39;;;;;;;9.60;4.43;;;;;;;18.98;64.84;94215.03;4890713;29;20021;-76
2022/06/28 01:30:06;;;;;;;9.30;4.80;;;;;;;18.95;65.00;94213.06;4890778;29;20315;-76
2022/06/28 01:32:32;;;;;;;7.47;4.50;;;;;;;18.90;65.04;94207.94;4890660;29;20021;-76
2022/06/28 01:34:59;;;;;;;6.68;4.38;;;;;;;18.88;65.31;94204.03;4890665;29;20338;-77
2022/06/28 01:37:24;;;;;;;7.50;4.57;;;;;;;18.91;65.54;94203.28;4890583;29;20025;-76
2022/06/28 01:39:50;;;;;;;8.45;4.47;;;;;;;18.84;65.58;94206.66;4890731;29;20028;-77
2022/06/28 01:42:16;;;;;;;10.57;5.30;;;;;;;18.82;65.53;94214.31;4890369;29;20021;-76
2022/06/28 01:44:43;;;;;;;6.13;4.55;;;;;;;18.82;65.73;94211.63;4890748;29;20029;-76
2022/06/28 01:47:10;;;;;;;11.38;4.85;;;;;;;18.78;66.13;94211.53;4890717;29;20034;-76
2022/06/28 01:49:36;;;;;;;6.55;5.10;;;;;;;18.79;66.12;94217.75;4890490;29;20024;-77
2022/06/28 01:52:01;;;;;;;8.02;5.28;;;;;;;18.74;66.08;94205.28;4890280;29;20073;-77
2022/06/28 01:54:26;;;;;;;7.53;4.90;;;;;;;18.74;66.30;94196.41;4890213;29;20065;-76
2022/06/28 01:56:52;;;;;;;8.27;5.13;;;;;;;18.69;66.63;94196.69;4890560;29;20059;-77
2022/06/28 01:59:18;;;;;;;7.60;5.35;;;;;;;18.67;66.67;94201.69;4889941;29;20289;-77
2022/06/28 02:01:43;;;;;;;11.70;5.30;;;;;;;18.68;67.02;94201.28;4890062;29;20068;-77
2022/06/28 02:04:18;;;;;;;7.82;5.18;;;;;;;18.68;66.83;94205.91;4890265;29;20036;-77
2022/06/28 02:06:43;;;;;;;5.38;4.28;;;;;;;18.63;65.96;94207.78;4889984;29;20048;-77
2022/06/28 02:09:09;;;;;;;6.43;4.05;;;;;;;18.57;65.34;94206.50;4889114;29;20120;-77
2022/06/28 02:11:34;;;;;;;12.68;4.18;;;;;;;18.53;64.48;94200.25;4888806;29;20028;-77
2022/06/28 02:14:00;;;;;;;5.18;3.40;;;;;;;18.48;64.46;94207.84;4890006;29;20061;-77
2022/06/28 02:16:25;;;;;;;8.38;4.07;;;;;;;18.46;64.66;94200.09;4889903;29;20162;-77
2022/06/28 02:18:51;;;;;;;10.95;4.38;;;;;;;18.46;64.70;94210.91;4889873;29;20036;-77
2022/06/28 02:21:16;;;;;;;8.68;4.78;;;;;;;18.49;65.28;94212.09;4889851;29;20076;-76
2022/06/28 02:23:41;;;;;;;10.10;4.72;;;;;;;18.43;65.50;94217.00;4889928;29;20224;-76
2022/06/28 02:26:11;;;;;;;6.72;4.03;;;;;;;18.38;65.51;94206.50;4889765;29;20024;-76
2022/06/28 02:28:39;;;;;;;7.22;4.47;;;;;;;18.33;66.07;94210.22;4889590;29;20105;-75
2022/06/28 02:31:13;;;;;;;6.55;4.78;;;;;;;18.35;66.28;94210.66;4889275;29;20100;-75
2022/06/28 02:33:39;;;;;;;11.32;5.43;;;;;;;18.37;66.96;94213.00;4889693;29;20025;-75
2022/06/28 02:41:34;;;;;;;7.07;5.20;;;;;;;18.31;67.23;94226.00;4889502;29;20043;-76
2022/06/28 02:44:00;;;;;;;16.33;4.93;;;;;;;18.32;67.14;94215.97;4889473;29;20029;-77
2022/06/28 02:46:25;;;;;;;8.95;4.65;;;;;;;18.27;67.24;94218.97;4889505;29;20033;-77
2022/06/28 02:48:51;;;;;;;7.15;4.32;;;;;;;18.28;67.93;94223.22;4889248;29;20052;-76
2022/06/28 02:51:16;;;;;;;12.27;4.88;;;;;;;18.27;67.76;94208.16;4889382;29;20036;-76
2022/06/28 02:53:42;;;;;;;9.00;4.72;;;;;;;18.25;67.77;94201.19;4889405;29;20029;-75
2022/06/28 02:56:07;;;;;;;8.30;4.55;;;;;;;18.22;67.60;94211.94;4889264;29;20033;-75
2022/06/28 02:58:33;;;;;;;5.65;3.78;;;;;;;18.18;67.54;94206.47;4889316;29;20035;-75
2022/06/28 03:00:58;;;;;;;10.82;4.78;;;;;;;18.16;67.74;94203.34;4889161;29;20084;-76
2022/06/28 03:03:24;;;;;;;9.27;4.22;;;;;;;18.19;67.70;94204.53;4889077;29;20028;-76
2022/06/28 03:05:50;;;;;;;11.20;4.20;;;;;;;18.18;67.49;94200.28;4888952;29;20049;-76
2022/06/28 03:08:16;;;;;;;7.55;4.20;;;;;;;18.15;67.68;94198.28;4889224;29;20256;-76
2022/06/28 03:10:42;;;;;;;7.72;4.20;;;;;;;18.15;67.63;94207.16;4889047;29;20024;-76
2022/06/28 03:13:08;;;;;;;12.98;3.92;;;;;;;18.14;67.54;94207.53;4888951;29;20020;-76
2022/06/28 03:15:33;;;;;;;8.43;4.25;;;;;;;18.12;67.56;94199.78;4888916;29;20133;-76
2022/06/28 03:17:59;;;;;;;11.73;4.75;;;;;;;18.09;67.99;94205.84;4887632;29;20033;-76
2022/06/28 03:20:25;;;;;;;9.50;4.35;;;;;;;18.12;67.96;94212.50;4889027;29;20044;-76
2022/06/28 03:22:50;;;;;;;6.95;5.00;;;;;;;18.11;68.13;94192.81;4888961;29;20309;-75
2022/06/28 03:25:16;;;;;;;10.75;4.85;;;;;;;18.10;68.40;94199.34;4889089;29;20025;-76
2022/06/28 03:27:41;;;;;;;8.70;4.65;;;;;;;18.11;69.17;94202.81;4888648;29;20039;-76
2022/06/28 03:30:08;;;;;;;13.88;5.28;;;;;;;18.13;68.87;94193.22;4887520;29;20037;-76
2022/06/28 03:32:33;;;;;;;7.22;5.30;;;;;;;18.18;69.11;94200.28;4888799;29;20058;-76
2022/06/28 03:34:59;;;;;;;12.30;5.60;;;;;;;18.24;69.06;94193.47;4888735;29;20031;-76
2022/06/28 03:37:25;;;;;;;15.15;6.18;;;;;;;18.20;69.38;94198.78;4888692;29;20027;-76
2022/06/28 03:39:50;;;;;;;15.02;7.45;;;;;;;18.18;69.51;94197.59;4888579;29;20027;-76
2022/06/28 03:42:16;;;;;;;15.02;6.72;;;;;;;18.22;69.07;94193.81;4888698;29;20032;-76
2022/06/28 03:44:41;;;;;;;13.88;6.68;;;;;;;18.16;69.84;94199.84;4887696;29;20255;-76
2022/06/28 03:47:07;;;;;;;10.82;6.05;;;;;;;18.19;69.60;94207.22;4888536;29;20126;-76
2022/06/28 03:49:32;;;;;;;19.92;6.35;;;;;;;18.16;69.51;94214.13;4888580;29;20051;-76
2022/06/28 03:51:58;;;;;;;11.05;6.13;;;;;;;18.19;69.40;94216.09;4888596;29;20320;-76
2022/06/28 03:54:24;;;;;;;10.38;6.45;;;;;;;18.16;69.84;94224.13;4888518;29;20125;-76
2022/06/28 03:56:50;;;;;;;8.98;6.22;;;;;;;18.13;69.84;94228.28;4888444;29;20024;-76
2022/06/28 03:59:15;;;;;;;17.27;6.68;;;;;;;18.15;70.11;94227.94;4888603;29;20093;-77
2022/06/28 04:01:41;;;;;;;9.63;7.28;;;;;;;18.22;70.12;94234.28;4888398;29;20197;-77
2022/06/28 04:04:06;;;;;;;16.65;6.30;;;;;;;18.22;70.61;94239.69;4888401;29;20035;-77
2022/06/28 04:06:32;;;;;;;11.20;7.15;;;;;;;18.26;70.35;94237.06;4888334;29;20061;-77
2022/06/28 04:08:57;;;;;;;18.27;8.20;;;;;;;18.30;70.19;94234.44;4888376;29;20264;-78
2022/06/28 04:11:23;;;;;;;14.23;7.60;;;;;;;18.35;69.98;94234.94;4888310;29;20021;-76
2022/06/28 04:13:51;;;;;;;13.95;7.60;;;;;;;18.35;70.25;94242.25;4888418;29;20312;-77
2022/06/28 04:16:17;;;;;;;12.75;8.20;;;;;;;18.40;70.33;94256.28;4888592;29;20048;-77
2022/06/28 04:18:43;;;;;;;11.05;7.90;;;;;;;18.50;69.82;94251.44;4888542;29;20370;-77
2022/06/28 04:21:10;;;;;;;16.60;8.30;;;;;;;18.55;69.73;94245.78;4888304;29;20025;-77
2022/06/28 04:23:36;;;;;;;11.00;7.88;;;;;;;18.56;69.54;94242.72;4889610;29;20024;-77
2022/06/28 04:26:02;;;;;;;10.20;7.78;;;;;;;18.67;70.37;94252.97;4891947;29;20208;-77
2022/06/28 04:28:28;;;;;;;15.25;8.40;;;;;;;18.62;70.31;94254.81;4891760;29;20040;-76
2022/06/28 04:30:53;;;;;;;19.30;10.10;;;;;;;18.68;70.26;94252.59;4891769;29;20025;-77
2022/06/28 04:33:19;;;;;;;20.75;8.57;;;;;;;18.75;70.34;94254.69;4891829;29;20024;-80
2022/06/28 04:35:44;;;;;;;18.85;9.18;;;;;;;18.80;70.96;94247.06;4891821;29;20067;-79
2022/06/28 04:38:10;;;;;;;22.08;9.38;;;;;;;18.84;70.88;94249.84;4891832;29;20337;-80
2022/06/28 04:40:35;;;;;;;25.60;10.32;;;;;;;18.95;70.32;94248.16;4891579;29;20373;-81
2022/06/28 04:43:02;;;;;;;14.85;9.07;;;;;;;18.97;69.76;94245.88;4891600;29;20123;-81
2022/06/28 04:45:28;;;;;;;15.52;9.73;;;;;;;19.06;69.09;94253.00;4891544;29;20044;-81
2022/06/28 04:47:53;;;;;;;14.95;8.90;;;;;;;19.11;69.30;94250.78;4891204;29;20245;-81
2022/06/28 04:50:19;;;;;;;22.38;9.38;;;;;;;19.13;68.73;94247.69;4891375;29;20025;-82
2022/06/28 04:52:45;;;;;;;27.10;9.40;;;;;;;19.15;68.63;94240.03;4891724;29;20097;-80
2022/06/28 04:55:10;;;;;;;19.00;9.57;;;;;;;19.18;68.97;94247.44;4891384;29;20134;-80
2022/06/28 04:57:36;;;;;;;15.52;9.80;;;;;;;19.18;69.11;94250.13;4891694;29;20028;-80
2022/06/28 05:00:02;;;;;;;17.38;10.02;;;;;;;19.27;68.95;94256.06;4891455;29;20260;-80
2022/06/28 05:02:28;;;;;;;18.88;10.48;;;;;;;19.33;68.82;94251.16;4891363;29;20223;-78
2022/06/28 05:04:53;;;;;;;14.50;9.77;;;;;;;19.34;68.97;94263.53;4891511;29;20029;-78
2022/06/28 05:07:19;;;;;;;20.80;10.05;;;;;;;19.41;68.24;94256.31;4891294;29;20274;-78
2022/06/28 05:09:44;;;;;;;21.92;10.00;;;;;;;19.48;67.96;94261.09;4891463;29;20039;-78
2022/06/28 05:12:10;;;;;;;25.75;11.73;;;;;;;19.56;67.48;94251.97;4891230;29;20096;-78
2022/06/28 05:14:35;;;;;;;21.40;9.60;;;;;;;19.62;67.18;94253.22;4891138;29;20032;-77
2022/06/28 05:17:01;;;;;;;18.50;11.68;;;;;;;19.72;67.59;94249.19;4890969;29;20025;-77
2022/06/28 05:19:28;;;;;;;26.90;11.43;;;;;;;19.78;66.62;94253.13;4891043;29;20025;-77
2022/06/28 05:21:54;;;;;;;23.95;10.55;;;;;;;19.78;65.93;94250.44;4890995;29;20290;-77
2022/06/28 05:24:19;;;;;;;17.63;10.30;;;;;;;19.85;66.38;94249.75;4890749;29;20029;-77
2022/06/28 05:26:45;;;;;;;19.50;9.93;;;;;;;19.99;66.38;94249.22;4890788;29;20067;-77
2022/06/28 05:29:11;;;;;;;17.88;9.68;;;;;;;20.12;65.67;94253.25;4890881;29;20025;-77
2022/06/28 05:31:36;;;;;;;22.67;9.88;;;;;;;20.18;64.31;94256.44;4890735;29;20080;-79
2022/06/28 05:34:02;;;;;;;29.60;12.05;;;;;;;20.23;64.05;94248.00;4890239;29;20025;-82
2022/06/28 05:36:28;;;;;;;15.95;9.82;;;;;;;20.24;62.58;94253.06;4890250;29;20091;-78
2022/06/28 05:38:53;;;;;;;21.65;9.73;;;;;;;20.26;63.18;94249.97;4890645;29;20085;-76
2022/06/28 05:41:19;;;;;;;15.23;8.27;;;;;;;20.30;62.96;94253.53;4890806;29;20057;-76
2022/06/28 05:43:44;;;;;;;17.30;9.75;;;;;;;20.36;62.33;94259.41;4889940;29;20048;-76
2022/06/28 05:46:09;;;;;;;22.50;9.68;;;;;;;20.37;63.11;94258.25;4890696;29;20268;-76
2022/06/28 05:48:36;;;;;;;31.13;11.65;;;;;;;20.40;63.07;94257.53;4890533;29;20315;-76
2022/06/28 05:51:02;;;;;;;22.10;11.30;;;;;;;20.40;63.33;94262.94;4890485;29;20287;-76
2022/06/28 05:53:27;;;;;;;21.27;11.20;;;;;;;20.35;63.78;94257.84;4889419;29;20033;-76
2022/06/28 05:55:53;;;;;;;28.02;10.60;;;;;;;20.39;64.04;94267.59;4888735;29;20081;-76
2022/06/28 05:58:18;;;;;;;24.25;9.82;;;;;;;20.48;63.85;94275.44;4888838;29;20028;-76
2022/06/28 06:00:43;;;;;;;17.70;10.80;;;;;;;20.57;63.49;94264.31;4888624;29;20024;-76
2022/06/28 06:03:09;;;;;;;29.35;12.90;;;;;;;20.63;63.08;94282.63;4888406;29;20048;-76
2022/06/28 06:05:34;;;;;;;30.65;11.40;;;;;;;20.74;63.45;94285.50;4888246;29;20033;-76
2022/06/28 06:08:00;;;;;;;16.95;11.25;;;;;;;20.79;62.84;94278.97;4888508;29;20055;-76
2022/06/28 06:10:25;;;;;;;20.05;11.50;;;;;;;20.86;62.83;94276.34;4890086;29;20064;-76
2022/06/28 06:12:50;;;;;;;24.80;11.85;;;;;;;20.91;62.57;94276.03;4890150;29;20346;-76
2022/06/28 06:15:16;;;;;;;23.15;12.48;;;;;;;20.98;62.70;94270.66;4890151;29;20033;-76
2022/06/28 06:17:41;;;;;;;23.27;11.40;;;;;;;21.03;62.65;94267.66;4890014;29;20069;-76
2022/06/28 06:20:08;;;;;;;31.70;11.95;;;;;;;21.12;63.41;94263.88;4889971;29;20029;-76
2022/06/28 06:22:34;;;;;;;30.33;12.30;;;;;;;21.27;62.40;94265.59;4889996;29;20035;-76
2022/06/28 06:25:00;;;;;;;19.42;10.93;;;;;;;21.39;62.53;94259.91;4890106;29;20270;-77
2022/06/28 06:27:25;;;;;;;20.63;10.82;;;;;;;21.46;62.03;94255.75;4889972;29;20033;-76
2022/06/28 06:29:51;;;;;;;20.15;10.95;;;;;;;21.58;62.27;94261.66;4889746;29;20025;-76
2022/06/28 06:32:16;;;;;;;16.58;10.57;;;;;;;21.64;61.35;94257.47;4889742;29;20017;-76
2022/06/28 06:34:42;;;;;;;23.33;10.60;;;;;;;21.69;61.94;94263.69;4889769;29;20025;-76
2022/06/28 06:37:07;;;;;;;26.95;10.52;;;;;;;21.77;62.49;94260.66;4889488;29;20076;-76
2022/06/28 06:39:33;;;;;;;25.52;10.77;;;;;;;21.89;61.91;94254.19;4889584;29;20044;-76
2022/06/28 06:41:58;;;;;;;22.33;9.68;;;;;;;22.01;61.87;94253.13;4889439;29;20028;-76
2022/06/28 06:44:25;;;;;;;21.38;10.73;;;;;;;22.10;59.97;94256.28;4889338;29;20052;-76
2022/06/28 06:46:50;;;;;;;19.27;9.73;;;;;;;22.24;59.87;94244.78;4889056;29;20040;-76
2022/06/28 06:49:17;;;;;;;24.67;10.77;;;;;;;22.35;59.45;94248.34;4889688;29;20038;-76
2022/06/28 06:51:44;;;;;;;24.60;9.75;;;;;;;22.48;59.02;94245.31;4889288;29;20013;-75
2022/06/28 06:54:11;;;;;;;26.73;9.40;;;;;;;22.59;58.20;94243.41;4889458;29;20331;-75
2022/06/28 06:56:36;;;;;;;21.73;8.63;;;;;;;22.61;57.89;94235.66;4889272;29;20028;-76
2022/06/28 06:59:02;;;;;;;15.88;8.60;;;;;;;22.70;57.09;94227.19;4889255;29;20028;-75
2022/06/28 07:01:29;;;;;;;23.50;8.57;;;;;;;22.73;56.85;94224.47;4889004;29;20029;-76
2022/06/28 07:03:55;;;;;;;24.40;8.07;;;;;;;22.79;56.30;94231.09;4889115;29;20032;-76
2022/06/28 07:06:21;;;;;;;28.40;8.45;;;;;;;22.85;57.75;94234.22;4888897;29;20052;-76
2022/06/28 07:08:46;;;;;;;16.70;8.50;;;;;;;22.92;56.27;94231.56;4889164;29;20208;-78
2022/06/28 07:11:12;;;;;;;16.20;7.32;;;;;;;23.01;54.26;94229.28;4889128;29;20051;-77
2022/06/28 07:13:37;;;;;;;19.33;7.55;;;;;;;23.07;53.53;94228.91;4889086;29;20062;-77
2022/06/28 07:16:03;;;;;;;19.17;7.35;;;;;;;23.14;55.22;94234.34;4889166;29;20096;-76
2022/06/28 07:18:31;;;;;;;14.27;7.55;;;;;;;23.27;54.18;94221.19;4889002;29;20028;-76
2022/06/28 07:20:57;;;;;;;23.35;7.18;;;;;;;23.28;54.04;94228.94;4888552;29;20331;-77
2022/06/28 07:23:22;;;;;;;11.98;6.90;;;;;;;23.35;53.17;94223.53;4888931;29;20100;-74
2022/06/28 07:25:48;;;;;;;22.25;6.35;;;;;;;23.53;54.10;94223.56;4889211;29;20231;-78
2022/06/28 07:28:13;;;;;;;14.27;5.53;;;;;;;23.60;53.23;94220.84;4888949;29;20037;-77
2022/06/28 07:30:39;;;;;;;18.20;5.65;;;;;;;23.73;52.04;94226.72;4888758;29;20398;-78
2022/06/28 07:33:04;;;;;;;12.93;5.22;;;;;;;23.85;51.02;94231.00;4888702;29;20162;-76
2022/06/28 07:35:30;;;;;;;11.50;4.90;;;;;;;23.96;49.80;94236.47;4888734;29;20029;-76
2022/06/28 07:37:55;;;;;;;14.02;5.43;;;;;;;24.14;49.30;94234.50;4888843;29;20097;-77
2022/06/28 07:40:21;;;;;;;12.60;5.28;;;;;;;24.27;49.14;94237.59;4888681;29;20021;-77
2022/06/28 07:42:47;;;;;;;12.32;5.68;;;;;;;24.30;48.85;94236.03;4888524;29;20346;-76
2022/06/28 07:45:13;;;;;;;10.27;4.72;;;;;;;24.39;48.70;94242.63;4888128;29;20036;-76
2022/06/28 07:47:39;;;;;;;17.92;5.05;;;;;;;24.49;48.13;94249.22;4888622;29;20319;-77
2022/06/28 07:53:00;;;;;;;6.78;4.35;;;;;;;24.66;46.31;94247.66;4887931;29;20037;-78
2022/06/28 07:55:26;;;;;;;15.30;4.10;;;;;;;24.74;46.33;94237.50;4888254;29;20032;-77
2022/06/28 07:57:51;;;;;;;15.43;4.90;;;;;;;24.83;46.68;94243.31;4889224;29;20205;-77
2022/06/28 08:00:19;;;;;;;11.20;5.07;;;;;;;24.93;47.31;94239.00;4892713;29;20264;-77
2022/06/28 08:02:45;;;;;;;15.52;4.57;;;;;;;25.01;47.24;94235.88;4892433;29;20092;-78
2022/06/28 08:05:11;;;;;;;9.85;5.13;;;;;;;25.02;45.58;94229.22;4892569;29;20050;-78
2022/06/28 08:07:37;;;;;;;14.02;5.72;;;;;;;25.09;46.02;94224.91;4892077;29;20080;-74
2022/06/28 08:10:02;;;;;;;7.50;4.57;;;;;;;25.12;47.65;94219.44;4892372;29;20029;-76
2022/06/28 08:12:28;;;;;;;11.73;4.70;;;;;;;25.13;47.12;94225.66;4892342;29;20205;-77
2022/06/28 08:14:53;;;;;;;6.90;4.55;;;;;;;25.20;46.33;94220.19;4892129;29;20231;-75
2022/06/28 08:17:19;;;;;;;8.88;4.80;;;;;;;25.29;47.30;94217.03;4892225;29;20227;-75
2022/06/28 08:19:45;;;;;;;12.00;4.97;;;;;;;25.39;45.22;94219.69;4892126;29;20104;-77
2022/06/28 08:22:10;;;;;;;12.82;5.15;;;;;;;25.47;44.01;94216.94;4892240;29;20052;-77
2022/06/28 08:24:35;;;;;;;9.70;3.85;;;;;;;25.51;43.47;94215.75;4892033;29;20029;-77
2022/06/28 08:27:01;;;;;;;10.40;4.22;;;;;;;25.54;44.64;94209.47;4892028;29;20432;-77
2022/06/28 08:29:26;;;;;;;15.52;4.38;;;;;;;25.63;44.92;94217.22;4892132;29;20021;-74
2022/06/28 08:31:52;;;;;;;10.35;4.50;;;;;;;25.73;44.74;94227.28;4891990;29;20230;-74
2022/06/28 08:34:17;;;;;;;7.05;4.30;;;;;;;25.77;44.45;94216.34;4891865;29;20077;-74
2022/06/28 08:36:43;;;;;;;11.35;4.72;;;;;;;25.88;44.43;94222.47;4891656;29;20096;-74
2022/06/28 08:39:08;;;;;;;22.98;4.72;;;;;;;25.97;42.70;94227.50;4891572;29;20243;-74
2022/06/28 08:41:34;;;;;;;6.72;3.35;;;;;;;26.09;41.13;94229.75;4891685;29;20253;-74
2022/06/28 08:44:00;;;;;;;4.72;3.08;;;;;;;26.20;41.18;94230.44;4891778;29;20028;-74
2022/06/28 08:46:26;;;;;;;7.53;3.53;;;;;;;26.32;41.39;94220.19;4891641;29;20025;-74
2022/06/28 08:48:55;;;;;;;6.88;3.67;;;;;;;26.40;41.47;94227.16;4891542;29;20104;-74
2022/06/28 08:51:30;;;;;;;14.80;3.63;;;;;;;26.35;41.95;94220.13;4891109;29;20032;-74
2022/06/28 08:53:58;;;;;;;9.80;3.35;;;;;;;26.47;41.32;94227.06;4891292;29;20035;-74
2022/06/28 08:56:24;;;;;;;8.95;2.95;;;;;;;26.46;40.70;94222.78;4890056;29;20041;-76
2022/06/28 08:58:50;;;;;;;6.63;3.20;;;;;;;26.63;41.58;94234.72;4891517;29;20394;-75
2022/06/28 09:01:16;;;;;;;7.78;3.20;;;;;;;26.76;40.44;94227.53;4891235;29;20096;-75
2022/06/28 09:03:41;;;;;;;4.82;3.00;;;;;;;26.82;39.86;94227.88;4891447;29;20052;-75
2022/06/28 09:06:07;;;;;;;4.65;3.33;;;;;;;26.89;39.49;94230.53;4891151;29;20361;-75
2022/06/28 09:08:32;;;;;;;9.52;4.72;;;;;;;26.84;39.70;94230.22;4891146;29;20031;-74
2022/06/28 09:10:58;;;;;;;12.43;4.03;;;;;;;26.75;40.63;94230.72;4891226;29;20041;-74
2022/06/28 09:13:24;;;;;;;4.47;2.85;;;;;;;26.74;40.46;94237.34;4890744;29;20103;-74
2022/06/28 09:15:58;;;;;;;6.32;3.17;;;;;;;26.71;41.01;94219.03;4891213;29;20029;-75
2022/06/28 09:18:43;;;;;;;5.85;3.53;;;;;;;26.88;40.91;94226.25;4890913;29;20025;-75
2022/06/28 09:21:12;;;;;;;8.27;3.95;;;;;;;27.02;40.83;94228.81;4890918;29;20232;-75
2022/06/28 09:23:41;;;;;;;15.30;3.47;;;;;;;27.18;41.29;94227.44;4891154;29;20024;-75
2022/06/28 09:26:10;;;;;;;8.40;3.22;;;;;;;27.31;40.15;94223.00;4890828;29;20025;-75
2022/06/28 09:28:41;;;;;;;9.88;3.75;;;;;;;27.46;40.22;94225.53;4891005;29;20116;-75
2022/06/28 09:31:20;;;;;;;12.48;3.22;;;;;;;27.59;39.55;94221.03;4890707;29;20032;-75
2022/06/28 09:34:03;;;;;;;12.25;3.47;;;;;;;27.77;39.20;94221.56;4890864;29;20219;-75
2022/06/28 09:36:41;;;;;;;5.90;2.78;;;;;;;27.86;37.03;94214.78;4890649;29;20041;-75
2022/06/28 09:39:33;;;;;;;6.22;3.85;;;;;;;27.90;36.35;94212.78;4890761;29;20025;-75
2022/06/28 09:42:01;;;;;;;5.73;3.83;;;;;;;27.73;36.68;94225.53;4889202;29;20108;-75
2022/06/28 09:44:28;;;;;;;9.52;2.70;;;;;;;27.71;36.09;94212.25;4890482;29;20265;-75
2022/06/28 09:46:57;;;;;;;6.03;3.00;;;;;;;27.72;36.81;94219.28;4890547;29;20219;-75
2022/06/28 09:49:29;;;;;;;7.50;3.00;;;;;;;27.73;36.26;94211.84;4890645;29;20054;-75
2022/06/28 09:51:58;;;;;;;8.85;3.55;;;;;;;27.81;35.99;94210.53;4890588;29;20076;-75
2022/06/28 09:54:26;;;;;;;5.53;2.72;;;;;;;27.75;37.29;94201.25;4890467;29;20024;-75
2022/06/28 09:56:54;;;;;;;9.57;3.40;;;;;;;27.85;36.33;94207.75;4890448;29;20252;-75
2022/06/28 09:59:21;;;;;;;7.40;3.08;;;;;;;27.88;36.40;94199.50;4890371;29;20025;-75
2022/06/28 10:01:48;;;;;;;7.32;3.15;;;;;;;27.94;36.39;94203.31;4890483;29;20068;-75
2022/06/28 10:04:14;;;;;;;9.68;3.00;;;;;;;28.00;35.43;94201.63;4890292;29;20021;-76
2022/06/28 10:06:40;;;;;;;5.57;3.80;;;;;;;28.07;35.93;94197.22;4889887;29;20041;-75
2022/06/28 10:09:06;;;;;;;11.90;3.58;;;;;;;28.21;36.22;94197.78;4890327;29;20040;-75
2022/06/28 10:15:01;;;;;;;5.82;3.25;;;;;;;28.29;35.25;94198.44;4890146;29;20346;-76
2022/06/28 10:17:34;;;;;;;12.60;3.60;;;;;;;28.52;37.42;94197.66;4890149;29;20073;-75
2022/06/28 10:20:06;;;;;;;11.48;3.33;;;;;;;28.67;36.62;94191.88;4889899;29;20044;-75
2022/06/28 10:22:31;;;;;;;13.57;3.28;;;;;;;28.86;36.65;94193.84;4889312;29;20061;-75
2022/06/28 10:24:59;;;;;;;7.55;3.42;;;;;;;28.96;33.50;94192.09;4889961;29;20033;-75
2022/06/28 10:27:26;;;;;;;12.27;3.08;;;;;;;28.89;33.89;94190.25;4889828;29;20029;-75
2022/06/28 10:29:58;;;;;;;6.00;3.30;;;;;;;28.81;33.86;94177.88;4889773;29;20051;-76
2022/06/28 10:32:46;;;;;;;4.80;3.00;;;;;;;28.91;35.67;94176.91;4889577;29;20045;-75
2022/06/28 10:35:31;;;;;;;6.88;3.00;;;;;;;29.05;35.61;94178.56;4889680;29;20319;-75
2022/06/28 10:38:09;;;;;;;4.97;3.25;;;;;;;29.23;36.90;94182.91;4885574;29;20064;-74
2022/06/28 10:40:49;;;;;;;8.63;3.30;;;;;;;29.43;35.75;94183.66;4889416;29;20101;-73
2022/06/28 10:43:36;;;;;;;5.80;3.20;;;;;;;29.64;35.00;94185.16;4889433;29;20045;-74
2022/06/28 10:46:07;;;;;;;8.50;2.58;;;;;;;29.83;35.23;94174.53;4889009;29;20117;-73
2022/06/28 10:48:47;;;;;;;10.85;3.50;;;;;;;29.74;31.53;94170.41;4889459;29;20037;-74
2022/06/28 10:51:13;;;;;;;5.85;3.17;;;;;;;29.63;32.83;94167.09;4889422;29;20051;-74
2022/06/28 10:54:02;;;;;;;6.55;3.33;;;;;;;29.55;34.08;94161.03;4889103;29;20227;-73
2022/06/28 10:56:47;;;;;;;8.68;3.15;;;;;;;29.67;34.38;94162.31;4889277;29;20268;-75
2022/06/28 10:59:13;;;;;;;8.65;3.33;;;;;;;29.83;34.10;94166.28;4888880;29;20040;-75
2022/06/28 11:01:39;;;;;;;7.82;4.00;;;;;;;29.98;34.03;94149.03;4888908;29;20335;-73
2022/06/28 11:04:13;;;;;;;8.43;3.17;;;;;;;30.08;33.21;94141.69;4889105;29;20108;-74
2022/06/28 11:06:43;;;;;;;7.80;4.15;;;;;;;30.13;33.57;94143.94;4888787;29;20329;-73
2022/06/28 11:09:52;;;;;;;5.13;3.30;;;;;;;30.18;33.56;94137.91;4889044;29;20056;-74
2022/06/28 11:12:19;;;;;;;9.85;3.50;;;;;;;30.10;33.64;94133.03;4888265;29;20037;-73
2022/06/28 11:14:52;;;;;;;6.53;3.08;;;;;;;30.19;33.69;94136.69;4888861;29;20021;-73
2022/06/28 11:17:19;;;;;;;18.42;4.47;;;;;;;30.26;34.33;94141.22;4888802;29;20366;-74
2022/06/28 11:19:53;;;;;;;7.90;3.30;;;;;;;30.30;34.45;94141.19;4889000;29;20055;-74
2022/06/28 11:22:20;;;;;;;8.95;4.00;;;;;;;30.35;33.29;94141.44;4888941;29;20040;-73
2022/06/28 11:24:46;;;;;;;11.48;3.20;;;;;;;30.49;34.49;94147.72;4888996;29;20197;-73
2022/06/28 11:27:20;;;;;;;5.75;3.05;;;;;;;30.51;33.62;94137.06;4889068;29;20029;-74
2022/06/28 11:29:51;;;;;;;5.93;3.08;;;;;;;30.47;35.30;94145.44;4888848;29;20028;-73
2022/06/28 11:32:20;;;;;;;4.05;3.00;;;;;;;30.45;33.36;94147.84;4888328;29;20032;-74
2022/06/28 11:35:13;;;;;;;9.85;3.50;;;;;;;30.46;33.16;94138.38;4888611;29;20052;-73
2022/06/28 11:37:53;;;;;;;7.72;3.35;;;;;;;30.46;32.79;94146.63;4886533;29;20064;-74
2022/06/28 11:40:39;;;;;;;8.38;3.03;;;;;;;30.42;35.07;94142.44;4888695;29;20029;-73
2022/06/28 11:43:06;;;;;;;7.72;3.10;;;;;;;30.30;32.29;94144.69;4887603;29;20044;-74
2022/06/28 11:45:37;;;;;;;8.00;2.88;;;;;;;30.23;31.82;94152.34;4888647;29;20099;-74